createdAt,value
2023-05-19T00:00:17.237Z,96.80
2023-05-19T00:03:21.924Z,96.78
2023-05-19T00:06:27.766Z,96.72
2023-05-19T00:09:31.496Z,96.49
2023-05-19T00:12:34.988Z,95.40
2023-05-19T00:15:37.952Z,95.34
2023-05-19T00:18:40.792Z,95.38
2023-05-19T00:21:43.410Z,96.21
2023-05-19T00:24:45.969Z,96.63
2023-05-19T00:27:48.525Z,96.73
2023-05-19T00:30:51.918Z,96.89
2023-05-19T00:33:54.592Z,96.97
2023-05-19T00:36:57.174Z,96.90
2023-05-19T00:39:59.897Z,97.07
2023-05-19T00:43:03.027Z,96.68
2023-05-19T00:46:07.431Z,96.96
2023-05-19T00:49:10.041Z,96.97
2023-05-19T00:52:12.644Z,97.21
2023-05-19T00:55:15.487Z,97.27
2023-05-19T00:58:19.297Z,97.55
2023-05-19T01:01:22.477Z,97.56
2023-05-19T01:04:26.674Z,97.99
2023-05-19T01:07:30.199Z,97.39
2023-05-19T01:10:33.228Z,97.73
2023-05-19T01:13:36.957Z,97.17
2023-05-19T01:17:05.788Z,96.73
2023-05-19T01:20:13.970Z,96.28
2023-05-19T01:23:40.152Z,96.45
2023-05-19T01:27:06.936Z,96.95
2023-05-19T01:30:26.528Z,96.94
2023-05-19T01:33:31.341Z,97.21
2023-05-19T01:36:35.436Z,98.23
2023-05-19T01:39:40.238Z,98.30
2023-05-19T01:42:43.188Z,98.62
2023-05-19T01:45:48.475Z,98.29
2023-05-19T01:48:52.566Z,97.91
2023-05-19T01:51:56.442Z,98.28
2023-05-19T01:54:59.335Z,98.65
2023-05-19T01:58:23.096Z,98.69
2023-05-19T02:02:01.102Z,98.94
2023-05-19T02:05:12.955Z,98.81
2023-05-19T02:08:33.876Z,98.71
2023-05-19T02:11:54.996Z,99.11
2023-05-19T02:15:11.816Z,99.10
2023-05-19T02:18:17.931Z,99.16
2023-05-19T02:21:20.615Z,99.33
2023-05-19T02:24:23.481Z,99.26
2023-05-19T02:27:26.431Z,98.96
2023-05-19T02:30:29.090Z,98.64
2023-05-19T02:33:31.653Z,99.18
2023-05-19T02:36:36.699Z,99.62
2023-05-19T02:39:39.421Z,99.83
2023-05-19T02:42:42.024Z,99.57
2023-05-19T02:45:45.479Z,99.75
2023-05-19T02:48:48.105Z,99.79
2023-05-19T02:51:50.659Z,99.58
2023-05-19T02:54:53.197Z,99.44
2023-05-19T02:57:55.946Z,99.22
2023-05-19T03:00:58.535Z,99.13
2023-05-19T03:04:01.811Z,99.34
2023-05-19T03:07:06.322Z,98.91
2023-05-19T03:10:09.179Z,98.19
2023-05-19T03:13:11.837Z,97.86
2023-05-19T03:16:14.575Z,97.80
2023-05-19T03:19:18.359Z,97.62
2023-05-19T03:22:21.473Z,97.33
2023-05-19T03:25:24.394Z,97.37
2023-05-19T03:28:29.659Z,96.78
2023-05-19T03:31:32.429Z,97.27
2023-05-19T03:34:35.686Z,97.62
2023-05-19T03:37:38.664Z,97.87
2023-05-19T03:40:41.884Z,97.77
2023-05-19T03:43:46.851Z,97.56
2023-05-19T03:46:50.227Z,97.19
2023-05-19T03:49:52.713Z,96.88
2023-05-19T03:53:18.574Z,96.97
2023-05-19T03:56:23.770Z,96.98
2023-05-19T03:59:26.398Z,94.70
2023-05-19T04:02:29.028Z,94.28
2023-05-19T04:05:31.881Z,93.99
2023-05-19T04:08:35.777Z,94.10
2023-05-19T04:11:39.762Z,93.27
2023-05-19T04:14:42.345Z,92.20
2023-05-19T04:17:46.251Z,92.60
2023-05-19T04:20:49.075Z,93.07
2023-05-19T04:23:51.899Z,91.92
2023-05-19T04:26:54.467Z,92.21
2023-05-19T04:29:58.173Z,92.25
2023-05-19T04:33:01.362Z,91.54
2023-05-19T04:36:08.632Z,92.30
2023-05-19T04:39:12.428Z,91.32
2023-05-19T04:42:19.525Z,90.84
2023-05-19T04:45:23.472Z,87.95
2023-05-19T04:48:31.036Z,87.86
2023-05-19T04:51:33.724Z,88.37
2023-05-19T04:54:38.584Z,88.93
2023-05-19T04:57:41.803Z,89.47
2023-05-19T05:00:44.559Z,87.00
2023-05-19T05:03:48.095Z,87.38
2023-05-19T05:06:51.606Z,86.61
2023-05-19T05:09:55.000Z,86.48
2023-05-19T05:12:58.107Z,88.11
2023-05-19T05:16:01.036Z,86.75
2023-05-19T05:19:04.076Z,87.25
2023-05-19T05:22:07.413Z,85.93
2023-05-19T05:25:14.535Z,85.60
2023-05-19T05:28:18.775Z,86.82
2023-05-19T05:31:23.080Z,86.05
2023-05-19T05:34:25.748Z,85.09
2023-05-19T05:37:29.708Z,85.34
2023-05-19T05:40:33.458Z,85.19
2023-05-19T05:43:36.282Z,83.20
2023-05-19T05:46:40.348Z,84.79
2023-05-19T05:49:44.160Z,83.10
2023-05-19T05:52:49.107Z,83.12
2023-05-19T05:55:53.792Z,83.54
2023-05-19T05:59:00.215Z,81.95
2023-05-19T06:02:03.504Z,81.88
2023-05-19T06:05:08.276Z,81.91
2023-05-19T06:08:11.218Z,81.03
2023-05-19T06:11:14.072Z,81.70
2023-05-19T06:14:17.560Z,79.06
2023-05-19T06:17:41.009Z,81.11
2023-05-19T06:20:43.678Z,81.84
2023-05-19T06:23:46.224Z,83.03
2023-05-19T06:26:48.869Z,81.59
2023-05-19T06:29:53.309Z,81.60
2023-05-19T06:32:56.849Z,81.06
2023-05-19T06:36:01.112Z,79.81
2023-05-19T06:39:04.004Z,80.20
2023-05-19T06:42:08.181Z,80.40
2023-05-19T06:45:40.108Z,79.36
2023-05-19T06:48:44.382Z,81.59
2023-05-19T06:51:47.891Z,79.38
2023-05-19T06:54:50.832Z,80.51
2023-05-19T06:57:53.955Z,79.82
2023-05-19T07:00:57.030Z,82.18
2023-05-19T07:04:03.627Z,80.02
2023-05-19T07:07:06.529Z,81.43
2023-05-19T07:10:09.955Z,79.47
2023-05-19T07:13:12.758Z,79.55
2023-05-19T07:16:15.559Z,78.29
2023-05-19T07:19:19.902Z,76.09
2023-05-19T07:22:24.226Z,73.96
2023-05-19T07:25:28.772Z,74.74
2023-05-19T07:28:31.522Z,75.05
2023-05-19T07:31:34.254Z,72.93
2023-05-19T07:34:36.895Z,73.55
2023-05-19T07:37:39.632Z,73.97
2023-05-19T07:40:42.228Z,73.44
2023-05-19T07:43:44.796Z,74.04
2023-05-19T07:46:47.970Z,74.16
2023-05-19T07:49:51.851Z,73.74
2023-05-19T07:52:56.652Z,74.25
2023-05-19T07:56:02.074Z,72.61
2023-05-19T07:59:04.898Z,73.20
2023-05-19T08:02:07.904Z,73.37
2023-05-19T08:05:10.800Z,69.67
2023-05-19T08:08:17.857Z,68.96
2023-05-19T08:11:21.890Z,69.47
2023-05-19T08:14:25.093Z,70.94
2023-05-19T08:17:27.894Z,67.13
2023-05-19T08:20:32.079Z,67.87
2023-05-19T08:23:34.919Z,66.29
2023-05-19T08:26:38.196Z,65.87
2023-05-19T08:29:41.198Z,66.44
2023-05-19T08:32:44.830Z,65.19
2023-05-19T08:35:48.209Z,64.68
2023-05-19T08:38:51.186Z,63.67
2023-05-19T08:41:54.643Z,63.99
2023-05-19T08:44:57.660Z,65.23
2023-05-19T08:48:00.948Z,65.80
2023-05-19T08:51:33.479Z,64.59
2023-05-19T08:54:54.715Z,63.76
2023-05-19T08:57:57.649Z,66.43
2023-05-19T09:01:01.421Z,64.74
2023-05-19T09:04:04.746Z,64.86
2023-05-19T09:07:09.520Z,64.01
2023-05-19T09:10:16.315Z,63.62
2023-05-19T09:13:19.616Z,62.94
2023-05-19T09:16:22.619Z,64.08
2023-05-19T09:19:29.124Z,64.91
2023-05-19T09:22:35.738Z,64.71
2023-05-19T09:25:47.327Z,63.69
2023-05-19T09:28:49.931Z,62.33
2023-05-19T09:31:54.797Z,63.77
2023-05-19T09:34:57.373Z,62.02
2023-05-19T09:38:00.987Z,61.39
2023-05-19T09:41:05.250Z,60.93
2023-05-19T09:44:07.924Z,60.18
2023-05-19T09:47:11.767Z,58.82
2023-05-19T09:50:14.516Z,59.03
2023-05-19T09:53:19.361Z,59.14
2023-05-19T09:56:23.939Z,57.72
2023-05-19T09:59:30.531Z,57.90
2023-05-19T10:02:35.325Z,58.30
2023-05-19T10:05:38.711Z,57.68
2023-05-19T10:08:42.596Z,58.64
2023-05-19T10:11:46.095Z,59.51
2023-05-19T10:14:49.857Z,59.25
2023-05-19T10:17:53.317Z,60.39
2023-05-19T10:20:58.270Z,59.70
2023-05-19T10:24:01.177Z,57.98
2023-05-19T10:27:08.514Z,57.66
2023-05-19T10:30:16.885Z,58.32
2023-05-19T10:33:23.297Z,56.55
2023-05-19T10:36:40.935Z,55.95
2023-05-19T10:39:46.132Z,55.78
2023-05-19T10:43:19.537Z,54.07
2023-05-19T10:46:27.600Z,56.63
2023-05-19T10:49:36.672Z,55.97
2023-05-19T10:52:40.776Z,56.03
2023-05-19T10:55:49.469Z,58.33
2023-05-19T10:58:53.064Z,57.01
2023-05-19T11:01:55.722Z,57.28
2023-05-19T11:05:09.328Z,54.67
2023-05-19T11:08:12.853Z,55.32
2023-05-19T11:11:17.081Z,54.19
2023-05-19T11:14:26.760Z,51.72
2023-05-19T11:17:29.612Z,53.00
2023-05-19T11:20:34.862Z,51.70
2023-05-19T11:23:40.704Z,52.00
2023-05-19T11:26:43.911Z,53.29
2023-05-19T11:29:49.291Z,50.21
2023-05-19T11:33:01.018Z,48.83
2023-05-19T11:36:05.753Z,47.90
2023-05-19T11:39:09.600Z,47.86
2023-05-19T11:42:12.163Z,46.75
2023-05-19T11:45:14.707Z,47.33
2023-05-19T11:48:21.251Z,50.03
2023-05-19T11:51:24.423Z,48.58
2023-05-19T11:54:33.823Z,47.16
2023-05-19T11:57:36.719Z,46.29
2023-05-19T12:00:43.385Z,43.25
2023-05-19T12:03:46.607Z,40.95
2023-05-19T12:06:51.463Z,40.78
2023-05-19T12:09:55.885Z,41.21
2023-05-19T12:12:59.870Z,43.64
2023-05-19T12:16:04.778Z,41.83
2023-05-19T12:19:07.512Z,45.35
2023-05-19T12:22:10.869Z,46.23
2023-05-19T12:25:15.274Z,44.00
2023-05-19T12:28:19.813Z,40.21
2023-05-19T12:31:25.616Z,39.38
2023-05-19T12:34:28.479Z,38.12
2023-05-19T12:37:31.124Z,42.17
2023-05-19T12:40:37.800Z,45.85
2023-05-19T12:43:41.179Z,42.85
2023-05-19T12:46:44.439Z,41.91
2023-05-19T12:49:57.567Z,37.70
2023-05-19T12:53:00.346Z,38.38
2023-05-19T12:56:13.176Z,36.58
2023-05-19T12:59:30.922Z,35.59
2023-05-19T13:03:00.105Z,37.08
2023-05-19T13:06:03.024Z,36.31
2023-05-19T13:09:07.355Z,33.06
2023-05-19T13:12:09.877Z,35.64
2023-05-19T13:15:12.949Z,35.74
2023-05-19T13:18:15.530Z,33.83
2023-05-19T13:21:18.013Z,33.71
2023-05-19T13:24:20.558Z,39.56
2023-05-19T13:27:24.862Z,34.34
2023-05-19T13:30:28.367Z,32.54
2023-05-19T13:33:30.964Z,34.10
2023-05-19T13:36:35.042Z,33.38
2023-05-19T13:39:38.055Z,30.81
2023-05-19T13:42:41.624Z,30.85
2023-05-19T13:45:44.671Z,29.88
2023-05-19T13:48:47.331Z,31.02
2023-05-19T13:51:50.032Z,32.19
2023-05-19T13:54:54.643Z,34.02
2023-05-19T13:57:58.153Z,31.10
2023-05-19T14:01:01.006Z,28.77
2023-05-19T14:04:05.253Z,27.59
2023-05-19T14:07:08.392Z,28.06
2023-05-19T14:10:11.414Z,27.51
2023-05-19T14:13:31.637Z,27.55
2023-05-19T14:16:38.160Z,27.45
2023-05-19T14:19:41.194Z,27.08
2023-05-19T14:22:43.713Z,27.73
2023-05-19T14:25:46.248Z,25.96
2023-05-19T14:28:48.984Z,28.84
2023-05-19T14:31:51.750Z,29.41
2023-05-19T14:34:54.367Z,30.61
2023-05-19T14:37:56.880Z,33.50
2023-05-19T14:40:59.446Z,33.11
2023-05-19T14:44:01.979Z,31.85
2023-05-19T14:47:04.976Z,30.23
2023-05-19T14:50:07.991Z,32.93
2023-05-19T14:53:11.014Z,30.98
2023-05-19T14:56:13.565Z,30.51
2023-05-19T14:59:16.107Z,31.72
2023-05-19T15:02:18.644Z,31.77
2023-05-19T15:05:22.909Z,31.22
2023-05-19T15:08:25.883Z,31.69
2023-05-19T15:11:28.412Z,31.15
2023-05-19T15:14:31.419Z,29.30
2023-05-19T15:17:34.193Z,28.57
2023-05-19T15:20:36.921Z,28.91
2023-05-19T15:23:39.602Z,28.53
2023-05-19T15:26:42.161Z,28.66
2023-05-19T15:29:44.853Z,29.43
2023-05-19T15:32:47.430Z,29.21
2023-05-19T15:35:52.091Z,27.69
2023-05-19T15:38:54.684Z,27.82
2023-05-19T15:41:57.226Z,27.93
2023-05-19T15:44:59.833Z,29.01
2023-05-19T15:48:03.396Z,29.55
2023-05-19T15:51:06.214Z,27.49
2023-05-19T15:54:08.712Z,27.46
2023-05-19T15:57:11.339Z,30.60
2023-05-19T16:00:14.492Z,32.18
2023-05-19T16:03:17.092Z,35.02
2023-05-19T16:06:20.623Z,34.29
2023-05-19T16:09:23.188Z,34.70
2023-05-19T16:12:27.530Z,33.34
2023-05-19T16:15:30.179Z,34.29
2023-05-19T16:18:32.752Z,35.68
2023-05-19T16:21:35.256Z,36.36
2023-05-19T16:24:37.726Z,35.07
2023-05-19T16:27:40.236Z,33.25
2023-05-19T16:30:43.210Z,31.36
2023-05-19T16:33:46.273Z,30.96
2023-05-19T16:36:48.919Z,32.56
2023-05-19T16:39:51.408Z,31.71
2023-05-19T16:42:54.125Z,34.08
2023-05-19T16:45:57.176Z,33.74
2023-05-19T16:48:59.811Z,35.78
2023-05-19T16:52:02.309Z,33.86
2023-05-19T16:55:06.018Z,36.76
2023-05-19T16:58:10.629Z,39.37
2023-05-19T17:01:13.229Z,40.61
2023-05-19T17:04:15.924Z,42.37
2023-05-19T17:07:18.612Z,44.28
2023-05-19T17:10:21.185Z,45.04
2023-05-19T17:13:23.784Z,45.92
2023-05-19T17:16:26.468Z,46.63
2023-05-19T17:19:29.181Z,47.99
2023-05-19T17:22:31.921Z,48.95
2023-05-19T17:25:34.783Z,49.57
2023-05-19T17:28:37.449Z,50.49
2023-05-19T17:31:40.107Z,50.88
2023-05-19T17:34:42.649Z,51.97
2023-05-19T17:37:45.137Z,52.95
2023-05-19T17:40:47.882Z,53.76
2023-05-19T17:43:50.756Z,54.99
2023-05-19T17:46:53.428Z,56.75
2023-05-19T17:49:56.021Z,56.91
2023-05-19T17:52:58.925Z,57.97
2023-05-19T17:56:03.581Z,60.08
2023-05-19T17:59:06.858Z,60.65
2023-05-19T18:02:10.037Z,60.02
2023-05-19T18:05:13.336Z,60.80
2023-05-19T18:08:16.771Z,61.64
2023-05-19T18:11:19.682Z,63.60
2023-05-19T18:14:22.163Z,64.03
2023-05-19T18:17:24.764Z,64.20
2023-05-19T18:20:27.356Z,64.86
2023-05-19T18:23:30.177Z,66.08
2023-05-19T18:26:33.653Z,66.59
2023-05-19T18:29:36.202Z,66.68
2023-05-19T18:32:38.934Z,67.46
2023-05-19T18:35:41.497Z,69.61
2023-05-19T18:38:44.086Z,71.21
2023-05-19T18:41:47.616Z,71.44
2023-05-19T18:44:50.817Z,70.63
2023-05-19T18:47:54.642Z,71.29
2023-05-19T18:50:57.398Z,72.40
2023-05-19T18:54:00.191Z,73.04
2023-05-19T18:57:03.626Z,73.67
2023-05-19T19:00:06.866Z,74.23
2023-05-19T19:03:11.937Z,74.54
2023-05-19T19:06:17.115Z,75.30
2023-05-19T19:09:19.786Z,75.12
2023-05-19T19:12:22.341Z,76.00
2023-05-19T19:15:25.477Z,75.57
2023-05-19T19:18:28.128Z,76.06
2023-05-19T19:21:31.886Z,75.39
2023-05-19T19:24:34.433Z,76.18
2023-05-19T19:27:37.329Z,77.30
2023-05-19T19:30:39.933Z,76.57
2023-05-19T19:33:43.582Z,78.22
2023-05-19T19:36:47.911Z,78.63
2023-05-19T19:39:50.607Z,79.12
2023-05-19T19:42:53.153Z,79.70
2023-05-19T19:46:00.803Z,79.25
2023-05-19T19:49:03.510Z,79.27
2023-05-19T19:52:06.132Z,79.46
2023-05-19T19:55:09.895Z,79.34
2023-05-19T19:58:12.915Z,79.62
2023-05-19T20:01:16.167Z,80.63
2023-05-19T20:04:18.849Z,80.41
2023-05-19T20:07:23.365Z,80.77
2023-05-19T20:10:26.081Z,81.00
2023-05-19T20:13:30.012Z,81.27
2023-05-19T20:16:33.988Z,81.71
2023-05-19T20:19:36.661Z,81.62
2023-05-19T20:22:39.520Z,81.14
2023-05-19T20:25:58.518Z,80.82
2023-05-19T20:29:05.200Z,80.25
2023-05-19T20:32:07.650Z,80.56
2023-05-19T20:35:10.259Z,80.65
2023-05-19T20:38:12.810Z,80.89
2023-05-19T20:41:15.487Z,81.15
2023-05-19T20:44:18.039Z,81.62
2023-05-19T20:47:21.154Z,81.79
2023-05-19T20:50:23.698Z,82.09
2023-05-19T20:53:26.524Z,82.19
2023-05-19T20:56:29.075Z,82.59
2023-05-19T20:59:32.145Z,83.01
2023-05-19T21:02:34.740Z,82.59
2023-05-19T21:05:37.306Z,83.34
2023-05-19T21:08:39.799Z,83.54
2023-05-19T21:11:42.364Z,83.51
2023-05-19T21:14:44.941Z,82.95
2023-05-19T21:17:47.669Z,83.51
2023-05-19T21:20:50.798Z,83.13
2023-05-19T21:23:53.361Z,83.55
2023-05-19T21:26:55.926Z,84.19
2023-05-19T21:29:58.479Z,84.66
2023-05-19T21:33:01.089Z,84.96
2023-05-19T21:36:03.752Z,85.46
2023-05-19T21:39:06.407Z,86.24
2023-05-19T21:42:09.057Z,87.12
2023-05-19T21:45:11.739Z,86.65
2023-05-19T21:48:14.233Z,86.83
2023-05-19T21:51:16.865Z,87.36
2023-05-19T21:54:19.380Z,87.21
2023-05-19T21:57:21.854Z,87.65
2023-05-19T22:00:25.880Z,88.00
2023-05-19T22:03:28.964Z,87.92
2023-05-19T22:06:31.672Z,88.06
2023-05-19T22:09:34.527Z,88.25
2023-05-19T22:12:37.192Z,88.38
2023-05-19T22:15:39.732Z,88.61
2023-05-19T22:18:42.627Z,88.28
2023-05-19T22:21:45.207Z,88.62
2023-05-19T22:24:47.738Z,88.23
2023-05-19T22:27:50.464Z,88.45
2023-05-19T22:30:52.962Z,88.94
2023-05-19T22:33:56.060Z,89.06
2023-05-19T22:36:58.690Z,89.35
2023-05-19T22:40:01.165Z,89.47
2023-05-19T22:43:03.721Z,89.36
2023-05-19T22:46:06.437Z,89.11
2023-05-19T22:49:08.956Z,89.12
2023-05-19T22:52:11.524Z,89.20
2023-05-19T22:55:14.060Z,89.16
2023-05-19T22:58:16.582Z,89.48
2023-05-19T23:01:19.142Z,89.08
2023-05-19T23:04:21.915Z,89.64
2023-05-19T23:07:24.506Z,89.75
2023-05-19T23:10:27.058Z,89.89
2023-05-19T23:13:34.146Z,90.23
2023-05-19T23:16:36.611Z,90.13
2023-05-19T23:19:39.176Z,89.89
2023-05-19T23:22:41.951Z,89.66
2023-05-19T23:25:44.515Z,89.12
2023-05-19T23:28:47.292Z,88.60
2023-05-19T23:31:49.832Z,88.94
2023-05-19T23:34:52.405Z,88.90
2023-05-19T23:37:54.999Z,89.29
2023-05-19T23:40:57.590Z,89.48
2023-05-19T23:44:00.132Z,89.69
2023-05-19T23:47:02.772Z,89.82
2023-05-19T23:50:05.784Z,90.46
2023-05-19T23:53:12.484Z,90.08
2023-05-19T23:56:15.057Z,90.44
2023-05-19T23:59:17.530Z,89.53
